Time;durP1;ratioP1;P1;durP2;ratioP2;P2;SDS_P1;SDS_P2;PMS_P1;PMS_P2;Temp;Humidity;BMP_temperature;BMP_pressure;BME280_temperature;BME280_humidity;BME280_pressure;Samples;Min_cycle;Max_cycle;Signal;HPM_P1;HPM_P2
2021/08/09 00:00:49;;;;;;;4.28;3.50;;;22.10;68.60;;;;;;5059464;28;20036;-39
2021/08/09 00:03:15;;;;;;;5.57;3.85;;;22.10;68.70;;;;;;5058924;28;20079;-39
2021/08/09 00:05:41;;;;;;;4.75;3.50;;;22.10;68.80;;;;;;5059355;28;20071;-39
2021/08/09 00:08:07;;;;;;;6.07;4.28;;;22.10;68.90;;;;;;5058833;28;20040;-39
2021/08/09 00:10:34;;;;;;;5.47;3.55;;;22.10;68.80;;;;;;5059152;28;20029;-40
2021/08/09 00:13:00;;;;;;;5.05;3.45;;;22.10;68.90;;;;;;5059125;28;20379;-40
2021/08/09 00:15:26;;;;;;;4.80;3.75;;;22.10;68.90;;;;;;5058654;28;20057;-40
2021/08/09 00:17:51;;;;;;;5.63;4.25;;;22.10;69.00;;;;;;5059066;28;20036;-39
2021/08/09 00:20:18;;;;;;;5.28;3.90;;;22.10;69.00;;;;;;5058569;28;20029;-39
2021/08/09 00:22:45;;;;;;;5.60;3.97;;;22.00;69.00;;;;;;5058426;28;20021;-40
2021/08/09 00:25:12;;;;;;;7.40;3.65;;;22.00;69.00;;;;;;5058526;28;20039;-39
2021/08/09 00:27:38;;;;;;;4.65;3.83;;;22.00;69.00;;;;;;5058577;28;20324;-40
2021/08/09 00:30:08;;;;;;;7.75;3.58;;;22.00;69.00;;;;;;5058719;28;20025;-39
2021/08/09 00:32:34;;;;;;;4.78;3.67;;;21.90;69.10;;;;;;5058355;28;20159;-40
2021/08/09 00:34:59;;;;;;;4.55;3.75;;;21.90;69.00;;;;;;5058666;28;20041;-39
2021/08/09 00:37:25;;;;;;;6.22;3.70;;;21.90;69.00;;;;;;5058205;28;20040;-38
2021/08/09 00:39:51;;;;;;;5.25;3.85;;;21.90;69.30;;;;;;5058376;28;20029;-39
2021/08/09 00:42:16;;;;;;;4.75;3.55;;;21.90;69.30;;;;;;5058222;28;20032;-39
2021/08/09 00:44:45;;;;;;;6.05;4.10;;;21.80;69.40;;;;;;5058266;28;20029;-37
2021/08/09 00:47:10;;;;;;;6.35;3.90;;;21.80;69.50;;;;;;5058427;28;20429;-37
2021/08/09 00:49:37;;;;;;;5.35;3.72;;;21.80;69.50;;;;;;5058199;28;20025;-38
2021/08/09 00:52:05;;;;;;;6.25;3.97;;;21.80;69.60;;;;;;5057921;28;20041;-38
2021/08/09 00:54:31;;;;;;;6.15;3.65;;;21.80;69.60;;;;;;5058115;28;20478;-37
2021/08/09 00:56:57;;;;;;;4.25;3.80;;;21.80;69.60;;;;;;5058136;28;20079;-37
2021/08/09 00:59:23;;;;;;;6.65;4.00;;;21.80;69.70;;;;;;5057768;28;20431;-37
2021/08/09 01:01:49;;;;;;;5.85;3.67;;;21.70;69.70;;;;;;5056612;28;20039;-37
2021/08/09 01:04:14;;;;;;;4.93;3.85;;;21.70;69.70;;;;;;5058142;28;20344;-37
2021/08/09 01:06:40;;;;;;;8.65;3.83;;;21.70;69.60;;;;;;5057706;28;20120;-37
2021/08/09 01:09:33;;;;;;;5.55;3.88;;;21.70;69.60;;;;;;5057957;28;20028;-38
2021/08/09 01:12:13;;;;;;;6.55;4.10;;;21.70;69.60;;;;;;5057540;28;20029;-37
2021/08/09 01:14:52;;;;;;;7.18;4.35;;;21.60;69.60;;;;;;5057911;28;20143;-39
2021/08/09 01:17:21;;;;;;;7.50;4.22;;;21.60;69.60;;;;;;5057757;28;20036;-37
2021/08/09 01:20:09;;;;;;;5.15;3.80;;;21.60;69.60;;;;;;5057750;28;20498;-38
2021/08/09 01:23:11;;;;;;;6.13;4.03;;;21.50;69.50;;;;;;5057900;28;20329;-37
2021/08/09 01:25:55;;;;;;;6.15;4.38;;;21.50;69.60;;;;;;5056595;28;20021;-37
2021/08/09 01:28:23;;;;;;;4.93;3.88;;;21.50;69.60;;;;;;5057366;28;20420;-37
2021/08/09 01:30:52;;;;;;;10.88;4.28;;;21.50;69.90;;;;;;5057741;28;20440;-37
2021/08/09 01:33:19;;;;;;;5.90;4.30;;;21.50;69.90;;;;;;5056644;28;20029;-38
2021/08/09 01:35:46;;;;;;;5.22;3.75;;;21.50;70.00;;;;;;5057484;28;20032;-37
2021/08/09 01:38:14;;;;;;;10.18;4.05;;;21.40;70.00;;;;;;5057451;28;20052;-37
2021/08/09 01:40:41;;;;;;;5.50;3.90;;;21.40;70.10;;;;;;5057449;28;20063;-37
2021/08/09 01:43:08;;;;;;;7.38;3.78;;;21.40;70.30;;;;;;5056968;28;20120;-38
2021/08/09 01:45:34;;;;;;;4.65;3.80;;;21.40;70.40;;;;;;5057450;28;20075;-37
2021/08/09 01:48:00;;;;;;;7.32;3.97;;;21.40;70.50;;;;;;5056945;28;20043;-37
2021/08/09 01:50:26;;;;;;;6.68;4.10;;;21.40;70.60;;;;;;5057313;28;20363;-38
2021/08/09 01:52:53;;;;;;;4.93;3.83;;;21.40;70.70;;;;;;5056798;28;20044;-38
2021/08/09 01:55:19;;;;;;;5.88;3.72;;;21.40;70.70;;;;;;5056966;28;20028;-37
2021/08/09 01:57:45;;;;;;;4.82;3.63;;;21.40;70.70;;;;;;5057051;28;20033;-37
2021/08/09 02:00:15;;;;;;;5.05;3.72;;;21.40;70.80;;;;;;5056780;28;20031;-36
2021/08/09 02:02:40;;;;;;;4.57;3.80;;;21.30;70.90;;;;;;5056975;28;20029;-36
2021/08/09 02:05:12;;;;;;;5.88;3.80;;;21.30;70.80;;;;;;5057013;28;20336;-38
2021/08/09 02:07:41;;;;;;;6.20;3.97;;;21.30;71.00;;;;;;5057092;28;20037;-37
2021/08/09 02:10:09;;;;;;;5.90;4.07;;;21.30;71.00;;;;;;5056768;28;20021;-36
2021/08/09 02:13:00;;;;;;;5.78;4.60;;;21.30;71.10;;;;;;5056733;28;20041;-37
2021/08/09 02:15:58;;;;;;;6.22;4.00;;;21.30;71.20;;;;;;5055921;28;20045;-37
2021/08/09 02:18:45;;;;;;;4.72;3.83;;;21.30;71.10;;;;;;5056432;28;20044;-38
2021/08/09 02:21:14;;;;;;;6.20;4.25;;;21.30;71.20;;;;;;5056845;28;20036;-38
2021/08/09 02:23:46;;;;;;;7.10;3.70;;;21.30;71.30;;;;;;5056451;28;20045;-37
2021/08/09 02:26:16;;;;;;;7.28;4.00;;;21.30;71.40;;;;;;5056761;28;20364;-37
2021/08/09 02:28:46;;;;;;;7.05;4.22;;;21.20;71.40;;;;;;5056326;28;20061;-38
2021/08/09 02:31:13;;;;;;;5.97;4.43;;;21.20;71.40;;;;;;5056355;28;20040;-36
2021/08/09 02:33:41;;;;;;;5.60;3.85;;;21.20;71.60;;;;;;5056462;28;20037;-38
2021/08/09 02:36:07;;;;;;;6.18;4.35;;;21.20;71.60;;;;;;5056630;28;20413;-38
2021/08/09 02:38:34;;;;;;;6.43;4.63;;;21.20;71.50;;;;;;5055948;28;20033;-38
2021/08/09 02:41:01;;;;;;;5.78;4.35;;;21.10;71.50;;;;;;5056388;28;20052;-38
2021/08/09 02:43:28;;;;;;;5.88;4.82;;;21.10;71.70;;;;;;5056289;28;20044;-37
2021/08/09 02:45:56;;;;;;;8.65;4.78;;;21.10;71.50;;;;;;5056323;28;20397;-37
2021/08/09 02:48:22;;;;;;;5.93;4.43;;;21.10;71.60;;;;;;5055750;28;20032;-37
2021/08/09 02:50:48;;;;;;;6.45;4.30;;;21.10;71.60;;;;;;5054918;28;20029;-36
2021/08/09 02:53:17;;;;;;;5.93;4.15;;;21.10;71.60;;;;;;5055802;28;20025;-37
2021/08/09 02:55:46;;;;;;;8.90;4.65;;;21.10;71.60;;;;;;5056193;28;20086;-38
2021/08/09 02:58:12;;;;;;;8.60;4.20;;;21.10;71.70;;;;;;5055798;28;20025;-37
2021/08/09 03:00:38;;;;;;;6.47;4.35;;;21.10;71.70;;;;;;5056004;28;20033;-38
2021/08/09 03:03:04;;;;;;;7.28;4.07;;;21.10;71.70;;;;;;5055647;28;20021;-37
2021/08/09 03:05:32;;;;;;;8.90;4.35;;;21.10;71.80;;;;;;5055600;28;20025;-36
2021/08/09 03:07:59;;;;;;;6.18;4.30;;;21.10;71.90;;;;;;5055559;28;20055;-38
2021/08/09 03:10:25;;;;;;;7.10;4.15;;;21.10;72.00;;;;;;5055859;28;20029;-37
2021/08/09 03:12:58;;;;;;;6.47;4.15;;;21.10;72.00;;;;;;5055718;28;20113;-38
2021/08/09 03:15:24;;;;;;;6.35;4.63;;;21.10;72.10;;;;;;5055512;28;20128;-36
2021/08/09 03:17:50;;;;;;;4.90;3.67;;;21.10;72.20;;;;;;5055763;28;20067;-38
2021/08/09 03:20:16;;;;;;;6.00;4.00;;;21.10;72.30;;;;;;5055870;28;20321;-39
2021/08/09 03:22:41;;;;;;;7.50;4.07;;;21.10;72.30;;;;;;5055654;28;20025;-39
2021/08/09 03:25:07;;;;;;;6.63;3.70;;;21.10;72.50;;;;;;5055899;28;20096;-39
2021/08/09 03:27:33;;;;;;;5.03;3.80;;;21.10;72.50;;;;;;5055447;28;20033;-40
2021/08/09 03:29:59;;;;;;;5.32;3.95;;;21.20;72.50;;;;;;5055631;28;20083;-40
2021/08/09 03:32:25;;;;;;;7.32;3.92;;;21.20;72.60;;;;;;5055455;28;20116;-40
2021/08/09 03:34:51;;;;;;;7.45;4.38;;;21.20;72.70;;;;;;5055540;28;20036;-38
2021/08/09 03:37:16;;;;;;;6.05;4.20;;;21.20;72.60;;;;;;5055625;28;20037;-39
2021/08/09 03:39:42;;;;;;;5.15;4.28;;;21.20;72.70;;;;;;5055597;28;20428;-40
2021/08/09 03:42:09;;;;;;;4.75;4.00;;;21.20;72.60;;;;;;5055609;28;20025;-39
2021/08/09 03:44:35;;;;;;;4.60;3.72;;;21.30;72.70;;;;;;5055959;28;20029;-40
2021/08/09 03:47:00;;;;;;;5.28;4.00;;;21.30;72.70;;;;;;5055174;28;20088;-45
2021/08/09 03:49:26;;;;;;;5.78;4.03;;;21.30;72.50;;;;;;5055256;28;20044;-39
2021/08/09 03:51:52;;;;;;;6.25;4.22;;;21.40;72.40;;;;;;5055148;28;20041;-39
2021/08/09 03:54:17;;;;;;;6.45;4.38;;;21.40;72.40;;;;;;5055218;28;20318;-39
2021/08/09 03:56:43;;;;;;;5.50;3.72;;;21.40;72.40;;;;;;5056239;28;20041;-38
2021/08/09 03:59:08;;;;;;;6.97;4.28;;;21.40;72.30;;;;;;5058963;28;20029;-38
2021/08/09 04:01:38;;;;;;;6.88;3.72;;;21.40;72.20;;;;;;5059323;28;20104;-39
2021/08/09 04:04:05;;;;;;;6.88;3.88;;;21.50;72.40;;;;;;5059277;28;20025;-39
2021/08/09 04:06:32;;;;;;;5.47;3.95;;;21.50;72.40;;;;;;5059293;28;20036;-39
2021/08/09 04:08:57;;;;;;;5.50;4.25;;;21.60;72.40;;;;;;5059168;28;20037;-39
2021/08/09 04:11:23;;;;;;;10.43;4.68;;;21.60;72.40;;;;;;5058980;28;20104;-38
2021/08/09 04:13:49;;;;;;;7.97;5.32;;;21.70;72.60;;;;;;5058794;28;20412;-38
2021/08/09 04:16:14;;;;;;;8.63;5.40;;;21.70;72.60;;;;;;5058371;28;20132;-40
2021/08/09 04:18:40;;;;;;;7.47;5.10;;;21.80;72.60;;;;;;5058743;28;20170;-40
2021/08/09 04:21:06;;;;;;;9.10;5.05;;;21.80;72.60;;;;;;5058951;28;20044;-39
2021/08/09 04:23:31;;;;;;;9.70;4.72;;;21.90;72.60;;;;;;5058655;28;20055;-40
2021/08/09 04:25:57;;;;;;;6.20;4.45;;;21.90;72.60;;;;;;5058699;28;20048;-40
2021/08/09 04:28:23;;;;;;;7.45;4.68;;;22.00;72.70;;;;;;5058227;28;20056;-39
2021/08/09 04:30:48;;;;;;;9.10;4.93;;;22.10;72.60;;;;;;5058596;28;20029;-39
2021/08/09 04:33:14;;;;;;;8.38;4.72;;;22.10;72.60;;;;;;5058229;28;20033;-39
2021/08/09 04:35:40;;;;;;;12.55;5.13;;;22.20;72.60;;;;;;5058291;28;20059;-40
2021/08/09 04:38:05;;;;;;;6.07;4.70;;;22.30;72.60;;;;;;5058225;28;20059;-40
2021/08/09 04:40:31;;;;;;;7.50;4.50;;;22.30;72.40;;;;;;5058329;28;20449;-39
2021/08/09 04:42:57;;;;;;;6.38;5.07;;;22.40;72.40;;;;;;5058317;28;20029;-40
2021/08/09 04:45:24;;;;;;;7.68;5.32;;;22.50;71.80;;;;;;5058237;28;20052;-39
2021/08/09 04:47:50;;;;;;;5.63;3.97;;;22.50;71.70;;;;;;5057946;28;20445;-39
2021/08/09 04:50:16;;;;;;;6.38;4.93;;;22.50;71.50;;;;;;5058179;28;20033;-39
2021/08/09 04:52:43;;;;;;;9.25;4.80;;;22.60;71.40;;;;;;5057878;28;20029;-40
2021/08/09 04:55:13;;;;;;;5.70;4.15;;;22.60;71.30;;;;;;5057832;28;20128;-40
2021/08/09 04:57:38;;;;;;;5.88;4.10;;;22.70;71.40;;;;;;5057893;28;20387;-39
2021/08/09 05:00:05;;;;;;;7.72;5.05;;;22.70;71.20;;;;;;5057859;28;20045;-39
2021/08/09 05:02:31;;;;;;;5.63;4.22;;;22.80;71.00;;;;;;5057627;28;20126;-40
2021/08/09 05:04:58;;;;;;;7.15;4.63;;;22.80;70.90;;;;;;5057719;28;20660;-41
2021/08/09 05:07:23;;;;;;;7.35;4.70;;;22.90;70.50;;;;;;5057028;28;20417;-40
2021/08/09 05:09:49;;;;;;;8.50;4.88;;;23.00;70.40;;;;;;5056603;28;20052;-39
2021/08/09 05:12:14;;;;;;;9.43;5.07;;;23.00;70.20;;;;;;5057182;28;20028;-39
2021/08/09 05:14:40;;;;;;;8.18;5.22;;;23.00;70.30;;;;;;5057241;28;20037;-40
2021/08/09 05:17:06;;;;;;;6.60;4.60;;;23.10;70.20;;;;;;5057320;28;20032;-39
2021/08/09 05:19:33;;;;;;;7.95;5.15;;;23.10;70.00;;;;;;5057454;28;20044;-39
2021/08/09 05:21:58;;;;;;;6.47;4.70;;;23.10;70.00;;;;;;5057238;28;20032;-39
2021/08/09 05:24:24;;;;;;;6.72;4.30;;;23.10;69.80;;;;;;5057359;28;20321;-38
2021/08/09 05:26:50;;;;;;;9.18;4.65;;;23.20;70.00;;;;;;5057146;28;20025;-38
2021/08/09 05:29:16;;;;;;;6.65;4.53;;;23.20;69.90;;;;;;5056495;28;20359;-37
2021/08/09 05:31:42;;;;;;;8.52;5.03;;;23.20;69.70;;;;;;5056910;28;20052;-39
2021/08/09 05:34:07;;;;;;;7.45;4.70;;;23.30;69.80;;;;;;5057148;28;20343;-37
2021/08/09 05:36:35;;;;;;;14.70;4.95;;;23.40;69.70;;;;;;5057240;28;20025;-37
2021/08/09 05:39:02;;;;;;;5.10;4.20;;;23.40;69.70;;;;;;5057235;28;20367;-37
2021/08/09 05:41:28;;;;;;;7.75;5.35;;;23.40;69.60;;;;;;5056903;28;20041;-37
2021/08/09 05:43:54;;;;;;;6.25;4.30;;;23.50;69.40;;;;;;5056771;28;20029;-38
2021/08/09 05:46:20;;;;;;;6.63;4.50;;;23.50;69.60;;;;;;5056639;28;20052;-39
2021/08/09 05:48:46;;;;;;;5.68;4.30;;;23.50;69.30;;;;;;5056597;28;20109;-37
2021/08/09 05:51:11;;;;;;;7.63;4.82;;;23.60;69.30;;;;;;5056421;28;20029;-38
2021/08/09 05:53:37;;;;;;;6.55;4.47;;;23.60;69.20;;;;;;5056163;28;20040;-38
2021/08/09 05:56:03;;;;;;;6.47;4.60;;;23.70;69.10;;;;;;5056810;28;20040;-37
2021/08/09 05:58:28;;;;;;;8.50;4.47;;;23.70;69.00;;;;;;5056213;28;20033;-37
2021/08/09 06:00:54;;;;;;;5.93;4.57;;;23.80;69.00;;;;;;5056550;28;20416;-38
2021/08/09 06:03:22;;;;;;;6.72;4.40;;;23.80;68.60;;;;;;5056051;28;20021;-40
2021/08/09 06:05:49;;;;;;;11.38;5.40;;;23.90;68.30;;;;;;5056680;28;20033;-39
2021/08/09 06:08:14;;;;;;;7.47;5.15;;;23.90;68.50;;;;;;5056313;28;20056;-40
2021/08/09 06:10:40;;;;;;;5.50;4.47;;;24.00;68.70;;;;;;5056708;28;20048;-40
2021/08/09 06:13:06;;;;;;;5.38;4.55;;;24.00;68.70;;;;;;5056137;28;20447;-39
2021/08/09 06:15:31;;;;;;;8.70;5.20;;;24.10;68.80;;;;;;5056357;28;20076;-39
2021/08/09 06:17:57;;;;;;;6.53;5.10;;;24.10;68.80;;;;;;5056219;28;20032;-40
2021/08/09 06:20:23;;;;;;;5.82;4.03;;;24.20;68.60;;;;;;5055724;28;20144;-39
2021/08/09 06:22:49;;;;;;;8.10;4.50;;;24.30;68.80;;;;;;5056094;28;20025;-41
2021/08/09 06:25:14;;;;;;;6.10;4.65;;;24.30;68.60;;;;;;5056422;28;20397;-40
2021/08/09 06:27:41;;;;;;;6.47;4.50;;;24.40;68.40;;;;;;5056231;28;20037;-40
2021/08/09 06:30:07;;;;;;;6.55;3.78;;;24.40;68.60;;;;;;5056105;28;20086;-40
2021/08/09 06:32:33;;;;;;;6.72;4.65;;;24.40;68.30;;;;;;5055413;28;20025;-41
2021/08/09 06:34:59;;;;;;;7.38;4.38;;;24.50;68.40;;;;;;5056043;28;20044;-37
2021/08/09 06:37:25;;;;;;;6.05;4.38;;;24.50;68.00;;;;;;5056178;28;20114;-37
2021/08/09 06:39:50;;;;;;;6.95;4.75;;;24.60;68.20;;;;;;5055742;28;20032;-38
2021/08/09 06:42:16;;;;;;;13.88;4.55;;;24.60;68.20;;;;;;5055757;28;20033;-38
2021/08/09 06:44:42;;;;;;;6.00;4.13;;;24.60;68.40;;;;;;5055775;28;20032;-38
2021/08/09 06:47:08;;;;;;;10.13;4.65;;;24.70;68.10;;;;;;5055799;28;20299;-38
2021/08/09 06:49:34;;;;;;;7.57;4.72;;;24.80;68.00;;;;;;5055619;28;20028;-37
2021/08/09 06:51:59;;;;;;;8.05;5.00;;;24.80;68.10;;;;;;5055385;28;20032;-38
2021/08/09 06:54:25;;;;;;;5.15;4.32;;;24.90;68.00;;;;;;5056036;28;20132;-37
2021/08/09 06:56:51;;;;;;;6.82;4.18;;;24.90;68.00;;;;;;5055431;28;20037;-37
2021/08/09 06:59:18;;;;;;;5.35;4.00;;;25.00;67.80;;;;;;5055472;28;20025;-38
2021/08/09 07:01:44;;;;;;;7.93;4.72;;;25.10;67.30;;;;;;5054915;28;20033;-38
2021/08/09 07:04:09;;;;;;;6.40;4.25;;;25.20;67.70;;;;;;5055315;28;20321;-39
2021/08/09 07:06:35;;;;;;;8.05;5.00;;;25.20;68.20;;;;;;5055455;28;20104;-38
2021/08/09 07:09:03;;;;;;;6.20;4.10;;;25.20;67.70;;;;;;5055524;28;20040;-39
2021/08/09 07:11:29;;;;;;;8.38;5.00;;;25.30;67.80;;;;;;5055722;28;20029;-37
2021/08/09 07:13:54;;;;;;;8.00;4.70;;;25.40;67.70;;;;;;5055456;28;20090;-46
2021/08/09 07:16:23;;;;;;;9.95;4.80;;;25.50;67.20;;;;;;5055193;28;20059;-37
2021/08/09 07:18:49;;;;;;;5.78;5.18;;;25.50;67.30;;;;;;5055514;28;20108;-37
2021/08/09 07:21:15;;;;;;;9.07;5.60;;;25.60;67.40;;;;;;5050615;28;20425;-37
2021/08/09 07:23:41;;;;;;;6.78;4.50;;;25.70;67.10;;;;;;5054846;28;20029;-34
2021/08/09 07:26:07;;;;;;;7.97;5.07;;;25.70;67.10;;;;;;5054762;28;20436;-35
2021/08/09 07:28:33;;;;;;;6.75;4.70;;;25.80;66.80;;;;;;5055210;28;20341;-35
2021/08/09 07:30:59;;;;;;;6.55;4.80;;;25.90;67.10;;;;;;5055322;28;20167;-42
2021/08/09 07:33:24;;;;;;;9.50;5.28;;;26.00;66.90;;;;;;5058283;28;20349;-40
2021/08/09 07:35:53;;;;;;;10.82;5.35;;;26.00;67.00;;;;;;5058642;28;20436;-41
2021/08/09 07:38:19;;;;;;;6.47;4.72;;;26.10;67.00;;;;;;5058962;28;20317;-42
2021/08/09 07:40:46;;;;;;;5.72;4.72;;;26.20;66.50;;;;;;5059087;28;20033;-42
2021/08/09 07:43:11;;;;;;;6.85;4.80;;;26.30;66.10;;;;;;5058957;28;20444;-45
2021/08/09 07:45:37;;;;;;;40.72;6.50;;;26.30;66.00;;;;;;5059154;28;20017;-32
2021/08/09 07:48:04;;;;;;;10.02;5.05;;;26.40;66.10;;;;;;5058715;28;20047;-40
2021/08/09 07:50:30;;;;;;;6.13;4.30;;;26.40;65.90;;;;;;5058543;28;20025;-36
2021/08/09 07:52:55;;;;;;;5.97;4.28;;;26.50;65.80;;;;;;5054621;28;20029;-42
2021/08/09 07:55:21;;;;;;;7.57;5.30;;;26.50;65.50;;;;;;5057359;28;20029;-36
2021/08/09 07:57:47;;;;;;;9.30;5.70;;;26.60;65.30;;;;;;5058307;28;20060;-36
2021/08/09 08:00:14;;;;;;;8.85;5.00;;;26.60;65.00;;;;;;5058165;28;20393;-36
2021/08/09 08:02:40;;;;;;;11.20;6.53;;;26.70;64.90;;;;;;5057878;28;20037;-37
2021/08/09 08:05:06;;;;;;;11.90;4.82;;;26.70;64.60;;;;;;5058064;28;20067;-44
2021/08/09 08:07:32;;;;;;;8.73;5.43;;;26.80;64.40;;;;;;5057874;28;20029;-37
2021/08/09 08:10:01;;;;;;;9.50;6.72;;;26.80;64.40;;;;;;5058024;28;20029;-37
2021/08/09 08:12:27;;;;;;;8.27;5.68;;;26.80;64.20;;;;;;5058085;28;20048;-36
2021/08/09 08:14:52;;;;;;;9.50;5.65;;;26.90;64.00;;;;;;5057538;28;20328;-36
2021/08/09 08:17:18;;;;;;;8.50;4.88;;;26.90;64.10;;;;;;5057984;28;20106;-38
2021/08/09 08:19:44;;;;;;;7.38;5.45;;;26.90;63.80;;;;;;5057558;28;20029;-38
2021/08/09 08:22:09;;;;;;;7.75;4.90;;;27.00;63.60;;;;;;5058165;28;20033;-36
2021/08/09 08:24:35;;;;;;;7.22;4.40;;;27.00;63.60;;;;;;5057556;28;20029;-39
2021/08/09 08:27:01;;;;;;;8.32;4.45;;;27.00;63.80;;;;;;5058145;28;20029;-37
2021/08/09 08:29:26;;;;;;;7.30;4.75;;;27.10;63.50;;;;;;5057363;28;20032;-36
2021/08/09 08:31:52;;;;;;;8.32;4.18;;;27.20;63.60;;;;;;5057521;28;20375;-39
2021/08/09 08:34:18;;;;;;;6.75;4.70;;;27.20;63.70;;;;;;5057904;28;20017;-38
2021/08/09 08:36:44;;;;;;;7.55;4.80;;;27.20;63.30;;;;;;5057247;28;20076;-39
2021/08/09 08:39:10;;;;;;;8.38;4.60;;;27.30;63.50;;;;;;5057729;28;20317;-39
2021/08/09 08:41:45;;;;;;;7.70;4.97;;;27.30;63.20;;;;;;5056569;28;20029;-40
2021/08/09 08:44:20;;;;;;;9.63;4.90;;;27.30;63.00;;;;;;5057585;28;20068;-40
2021/08/09 08:46:46;;;;;;;8.40;4.65;;;27.40;63.60;;;;;;5057429;28;20318;-36
2021/08/09 08:49:14;;;;;;;7.38;4.95;;;27.40;63.30;;;;;;5057828;28;20025;-39
2021/08/09 08:51:44;;;;;;;7.20;5.05;;;27.40;63.30;;;;;;5057175;28;20113;-36
2021/08/09 08:54:12;;;;;;;9.82;5.47;;;27.50;63.10;;;;;;5057749;28;20017;-39
2021/08/09 08:56:39;;;;;;;8.77;5.20;;;27.60;63.20;;;;;;5057741;28;20051;-36
2021/08/09 08:59:11;;;;;;;7.63;4.72;;;27.60;63.00;;;;;;5057624;28;20104;-39
2021/08/09 09:01:43;;;;;;;8.05;4.97;;;27.60;62.90;;;;;;5057568;28;20086;-36
2021/08/09 09:04:29;;;;;;;8.55;5.10;;;27.70;62.80;;;;;;5057355;28;20047;-39
2021/08/09 09:07:00;;;;;;;9.90;5.95;;;27.70;62.80;;;;;;5056944;28;20037;-36
2021/08/09 09:09:28;;;;;;;7.03;5.40;;;27.70;62.60;;;;;;5052552;28;20332;-36
2021/08/09 09:11:53;;;;;;;8.00;4.78;;;27.80;62.30;;;;;;5056897;28;20029;-40
2021/08/09 09:14:59;;;;;;;9.50;5.15;;;27.80;62.40;;;;;;5056688;28;20078;-41
2021/08/09 09:17:33;;;;;;;6.70;5.20;;;27.80;62.60;;;;;;5056671;28;20336;-36
2021/08/09 09:19:59;;;;;;;6.72;5.40;;;27.90;62.40;;;;;;5056181;28;20100;-40
2021/08/09 09:22:25;;;;;;;7.50;4.97;;;27.90;62.40;;;;;;5054579;28;20037;-36
2021/08/09 09:24:52;;;;;;;8.45;5.00;;;27.90;62.80;;;;;;5056821;28;20036;-40
2021/08/09 09:27:32;;;;;;;8.52;5.47;;;28.00;62.60;;;;;;5056570;28;20029;-40
2021/08/09 09:29:58;;;;;;;8.27;5.05;;;28.00;62.50;;;;;;5056502;28;20313;-39
2021/08/09 09:32:25;;;;;;;8.45;5.40;;;28.10;62.30;;;;;;5056771;28;20064;-37
2021/08/09 09:34:52;;;;;;;11.98;6.38;;;28.10;62.30;;;;;;5056682;28;20025;-36
2021/08/09 09:37:23;;;;;;;15.27;5.95;;;28.20;62.10;;;;;;5056265;28;20052;-39
2021/08/09 09:39:49;;;;;;;9.18;5.38;;;28.30;62.00;;;;;;5056590;28;20112;-41
2021/08/09 09:42:15;;;;;;;10.50;5.63;;;28.30;61.90;;;;;;5056600;28;20064;-37
2021/08/09 09:44:42;;;;;;;12.27;6.60;;;28.40;61.60;;;;;;5056285;28;20032;-37
2021/08/09 09:47:32;;;;;;;9.27;5.95;;;28.40;61.30;;;;;;5056462;28;20029;-41
2021/08/09 09:49:59;;;;;;;9.63;7.03;;;28.50;61.20;;;;;;5056370;28;20170;-41
2021/08/09 09:52:32;;;;;;;8.88;6.18;;;28.50;61.00;;;;;;5056071;28;20041;-39
2021/08/09 09:54:59;;;;;;;9.30;6.25;;;28.50;61.60;;;;;;5055749;28;20112;-38
2021/08/09 09:57:26;;;;;;;10.48;5.93;;;28.50;61.10;;;;;;5056036;28;20033;-42
2021/08/09 09:59:54;;;;;;;10.25;6.70;;;28.60;61.00;;;;;;5055817;28;20028;-41
2021/08/09 10:02:20;;;;;;;7.30;6.03;;;28.60;60.70;;;;;;5056052;28;20366;-41
2021/08/09 10:04:45;;;;;;;8.90;5.35;;;28.60;60.70;;;;;;5055958;28;20078;-41
2021/08/09 10:07:13;;;;;;;6.85;5.70;;;28.70;60.80;;;;;;5055804;28;20086;-41
2021/08/09 10:09:39;;;;;;;10.45;5.97;;;28.70;60.80;;;;;;5055962;28;20485;-42
2021/08/09 10:12:05;;;;;;;11.57;5.60;;;28.70;60.90;;;;;;5056220;28;20095;-37
2021/08/09 10:14:33;;;;;;;6.75;5.65;;;28.80;60.50;;;;;;5055869;28;20037;-41
2021/08/09 10:16:59;;;;;;;8.15;5.93;;;28.80;60.80;;;;;;5056231;28;20140;-41
2021/08/09 10:19:26;;;;;;;8.43;5.80;;;28.90;60.90;;;;;;5055744;28;20040;-41
2021/08/09 10:21:52;;;;;;;8.40;6.22;;;29.00;60.60;;;;;;5055130;28;20036;-37
2021/08/09 10:24:41;;;;;;;7.25;5.88;;;29.00;60.10;;;;;;5055142;28;20040;-42
2021/08/09 10:27:08;;;;;;;15.00;7.80;;;29.10;60.50;;;;;;5054824;28;20033;-43
2021/08/09 10:29:54;;;;;;;6.18;5.35;;;29.10;60.00;;;;;;5055995;28;20039;-43
2021/08/09 10:32:20;;;;;;;8.65;5.30;;;29.20;60.00;;;;;;5055554;28;20124;-42
2021/08/09 10:34:46;;;;;;;7.15;5.38;;;29.30;60.00;;;;;;5056409;28;20071;-37
2021/08/09 10:37:14;;;;;;;6.43;4.93;;;29.40;59.00;;;;;;5055551;28;20053;-42
2021/08/09 10:40:03;;;;;;;7.53;5.35;;;29.50;59.10;;;;;;5055517;28;20083;-37
2021/08/09 10:42:40;;;;;;;6.83;4.40;;;29.60;58.60;;;;;;5055839;28;20033;-37
2021/08/09 10:45:14;;;;;;;7.18;5.28;;;29.70;58.40;;;;;;5055361;28;20036;-37
2021/08/09 10:47:46;;;;;;;6.40;5.22;;;29.70;58.40;;;;;;5056057;28;20037;-48
2021/08/09 10:50:26;;;;;;;8.07;4.97;;;29.80;58.00;;;;;;5055899;28;20483;-46
2021/08/09 10:52:56;;;;;;;13.80;5.80;;;29.90;57.50;;;;;;5055574;28;20048;-39
2021/08/09 10:55:31;;;;;;;14.07;5.55;;;30.00;56.70;;;;;;5054641;28;20025;-44
2021/08/09 10:57:57;;;;;;;6.50;4.55;;;30.10;56.30;;;;;;5055443;28;20029;-43
2021/08/09 11:00:38;;;;;;;6.97;4.97;;;30.20;56.90;;;;;;5055683;28;20095;-37
2021/08/09 11:03:05;;;;;;;6.70;4.78;;;30.30;56.40;;;;;;5055339;28;20044;-43
2021/08/09 11:05:31;;;;;;;7.25;5.32;;;30.30;56.20;;;;;;5055591;28;20428;-42
2021/08/09 11:08:15;;;;;;;8.50;5.55;;;30.40;55.90;;;;;;5055561;28;20110;-43
2021/08/09 11:11:01;;;;;;;12.52;5.00;;;30.50;56.20;;;;;;5055706;28;20033;-42
2021/08/09 11:13:37;;;;;;;10.52;5.07;;;30.60;56.20;;;;;;5055660;28;20041;-37
2021/08/09 11:16:04;;;;;;;5.75;4.82;;;30.60;55.60;;;;;;5055384;28;20045;-44
2021/08/09 11:18:31;;;;;;;7.80;4.50;;;30.70;55.50;;;;;;5055246;28;20255;-38
2021/08/09 11:21:06;;;;;;;8.55;5.00;;;30.70;55.20;;;;;;5055163;28;20037;-38
2021/08/09 11:23:39;;;;;;;15.07;5.10;;;30.80;55.40;;;;;;5055278;28;20025;-37
2021/08/09 11:26:06;;;;;;;6.82;5.07;;;30.80;54.30;;;;;;5055588;28;20095;-45
2021/08/09 11:28:32;;;;;;;7.75;4.78;;;30.90;54.20;;;;;;5055392;28;20021;-38
2021/08/09 11:31:04;;;;;;;7.80;4.70;;;31.00;53.40;;;;;;5055575;28;20082;-38
2021/08/09 11:33:33;;;;;;;7.03;5.43;;;31.00;53.50;;;;;;5055085;28;20032;-44
2021/08/09 11:36:06;;;;;;;6.80;4.67;;;31.10;53.00;;;;;;5055480;28;20040;-43
2021/08/09 11:38:53;;;;;;;7.35;4.85;;;31.20;52.60;;;;;;5055052;28;20273;-44
2021/08/09 11:41:20;;;;;;;9.40;4.90;;;31.20;53.00;;;;;;5055491;28;20029;-39
2021/08/09 11:43:48;;;;;;;7.30;4.70;;;31.30;52.70;;;;;;5055340;28;20375;-44
2021/08/09 11:46:17;;;;;;;11.07;5.03;;;31.40;52.40;;;;;;5055441;28;20025;-45
2021/08/09 11:48:46;;;;;;;6.00;4.45;;;31.50;52.60;;;;;;5055144;28;20112;-38
2021/08/09 11:51:24;;;;;;;6.13;3.65;;;31.50;52.60;;;;;;5055463;28;20029;-45
2021/08/09 11:53:51;;;;;;;8.95;3.72;;;31.60;52.50;;;;;;5055330;28;20375;-38
2021/08/09 11:56:21;;;;;;;5.00;3.97;;;31.80;51.50;;;;;;5055633;28;20064;-49
2021/08/09 11:58:47;;;;;;;7.18;3.83;;;31.80;51.70;;;;;;5055095;28;20033;-44
2021/08/09 12:01:41;;;;;;;4.68;3.80;;;31.90;51.30;;;;;;5055139;28;20286;-44
2021/08/09 12:04:08;;;;;;;4.63;3.60;;;32.10;51.40;;;;;;5054845;28;20049;-45
2021/08/09 12:06:56;;;;;;;5.30;3.50;;;32.20;51.10;;;;;;5054713;28;20036;-38
2021/08/09 12:09:35;;;;;;;5.47;3.65;;;32.30;50.40;;;;;;5055206;28;20056;-46
2021/08/09 12:12:05;;;;;;;8.85;3.45;;;32.40;50.70;;;;;;5054847;28;20040;-38
2021/08/09 12:14:32;;;;;;;5.60;3.63;;;32.50;49.90;;;;;;5054896;28;20167;-44
2021/08/09 12:17:00;;;;;;;4.13;3.08;;;32.60;49.50;;;;;;5054491;28;20049;-37
2021/08/09 12:19:56;;;;;;;5.78;3.65;;;32.70;49.40;;;;;;5058147;28;20032;-37
2021/08/09 12:22:27;;;;;;;6.00;3.50;;;32.90;48.50;;;;;;5058419;28;20100;-45
2021/08/09 12:25:15;;;;;;;7.65;3.85;;;33.00;48.70;;;;;;5058396;28;20033;-46
2021/08/09 12:27:42;;;;;;;4.97;3.50;;;33.10;48.10;;;;;;5057968;28;20441;-46
2021/08/09 12:30:20;;;;;;;6.60;3.30;;;33.20;48.00;;;;;;5058161;28;20041;-47
2021/08/09 12:33:07;;;;;;;3.80;3.42;;;33.30;47.40;;;;;;5057886;28;20067;-38
2021/08/09 12:35:36;;;;;;;8.85;3.78;;;33.40;47.60;;;;;;5058308;28;20025;-47
2021/08/09 12:38:03;;;;;;;;;;;33.50;47.00;;;;;;5058709;28;20375;-38
2021/08/09 12:40:38;;;;;;;7.00;3.55;;;33.60;47.40;;;;;;5057688;28;20201;-38
2021/08/09 12:43:07;;;;;;;4.75;3.35;;;33.70;47.10;;;;;;5057959;28;20053;-38
2021/08/09 12:45:33;;;;;;;7.80;3.72;;;33.70;46.60;;;;;;5056616;28;20435;-49
2021/08/09 12:47:59;;;;;;;7.80;3.55;;;33.80;46.60;;;;;;5057985;28;20037;-44
2021/08/09 12:50:25;;;;;;;4.93;3.33;;;33.90;46.10;;;;;;5058067;28;20423;-38
2021/08/09 12:52:51;;;;;;;5.25;3.10;;;33.90;45.90;;;;;;5057437;28;20295;-37